createdAt,value
2023-02-01T00:01:28.249Z,14.81
2023-02-01T00:03:56.636Z,14.83
2023-02-01T00:06:25.130Z,14.83
2023-02-01T00:08:57.062Z,14.86
2023-02-01T00:11:26.301Z,14.86
2023-02-01T00:13:55.686Z,14.88
2023-02-01T00:16:27.857Z,14.90
2023-02-01T00:19:00.582Z,14.93
2023-02-01T00:21:29.473Z,14.97
2023-02-01T00:23:58.359Z,15.00
2023-02-01T00:26:39.391Z,15.03
2023-02-01T00:29:13.027Z,15.07
2023-02-01T00:31:42.201Z,15.14
2023-02-01T00:34:14.091Z,15.17
2023-02-01T00:36:43.428Z,15.24
2023-02-01T00:39:12.771Z,15.29
2023-02-01T00:41:42.250Z,15.34
2023-02-01T00:44:10.716Z,15.40
2023-02-01T00:46:39.485Z,15.46
2023-02-01T00:49:09.281Z,15.53
2023-02-01T00:51:37.707Z,15.59
2023-02-01T00:54:06.269Z,15.65
2023-02-01T00:56:34.593Z,15.72
2023-02-01T00:59:02.938Z,15.79
2023-02-01T01:01:31.324Z,15.85
2023-02-01T01:04:01.780Z,15.92
2023-02-01T01:06:33.219Z,16.00
2023-02-01T01:09:05.016Z,16.06
2023-02-01T01:11:37.084Z,16.14
2023-02-01T01:14:06.583Z,16.22
2023-02-01T01:16:35.619Z,16.29
2023-02-01T01:19:04.914Z,16.37
2023-02-01T01:21:33.284Z,16.45
2023-02-01T01:24:01.968Z,16.53
2023-02-01T01:26:31.886Z,16.62
2023-02-01T01:29:05.747Z,16.71
2023-02-01T01:31:34.814Z,16.81
2023-02-01T01:34:03.398Z,16.91
2023-02-01T01:36:32.113Z,17.02
2023-02-01T01:39:00.735Z,17.12
2023-02-01T01:41:32.932Z,17.23
2023-02-01T01:44:05.071Z,17.34
2023-02-01T01:46:42.687Z,17.45
2023-02-01T01:49:22.731Z,17.55
2023-02-01T01:51:58.105Z,17.67
2023-02-01T01:54:39.955Z,17.78
2023-02-01T01:57:31.153Z,17.90
2023-02-01T02:00:10.651Z,18.04
2023-02-01T02:02:41.069Z,18.16
2023-02-01T02:05:10.877Z,18.28
2023-02-01T02:07:42.326Z,18.37
2023-02-01T02:10:13.299Z,18.50
2023-02-01T02:12:44.169Z,18.60
2023-02-01T02:15:15.896Z,18.72
2023-02-01T02:17:53.043Z,18.85
2023-02-01T02:20:50.593Z,18.99
2023-02-01T02:23:50.916Z,19.15
2023-02-01T02:26:36.036Z,19.27
2023-02-01T02:29:37.856Z,19.41
2023-02-01T02:32:26.543Z,19.54
2023-02-01T02:35:15.807Z,19.65
2023-02-01T02:38:10.429Z,19.77
2023-02-01T02:40:47.906Z,19.87
2023-02-01T02:43:52.912Z,19.97
2023-02-01T02:46:51.021Z,20.12
2023-02-01T02:49:23.108Z,20.25
2023-02-01T02:52:41.763Z,20.34
2023-02-01T02:55:11.724Z,20.50
2023-02-01T02:58:02.767Z,20.61
2023-02-01T03:00:52.987Z,20.76
2023-02-01T03:03:39.933Z,20.90
2023-02-01T03:06:18.021Z,21.05
2023-02-01T03:08:47.317Z,21.17
2023-02-01T03:11:18.007Z,21.29
2023-02-01T03:14:02.712Z,21.44
2023-02-01T03:16:39.307Z,21.56
2023-02-01T03:19:11.558Z,21.66
2023-02-01T03:22:10.685Z,21.78
2023-02-01T03:24:47.789Z,21.92
2023-02-01T03:27:16.110Z,22.02
2023-02-01T03:29:58.805Z,22.13
2023-02-01T03:32:27.687Z,22.25
2023-02-01T03:34:56.912Z,22.35
2023-02-01T03:37:30.648Z,22.45
2023-02-01T03:40:13.736Z,22.57
2023-02-01T03:42:50.428Z,22.70
2023-02-01T03:45:46.310Z,22.80
2023-02-01T03:48:17.374Z,22.89
2023-02-01T03:50:53.780Z,22.99
2023-02-01T03:53:25.585Z,23.09
2023-02-01T03:55:56.165Z,23.22
2023-02-01T03:58:25.349Z,23.32
2023-02-01T04:00:59.451Z,23.40
2023-02-01T04:03:29.466Z,23.50
2023-02-01T04:05:57.940Z,23.59
2023-02-01T04:08:29.607Z,23.71
2023-02-01T04:10:58.122Z,23.82
2023-02-01T04:13:26.496Z,23.90
2023-02-01T04:15:54.819Z,23.99
2023-02-01T04:18:23.141Z,24.08
2023-02-01T04:20:51.446Z,24.16
2023-02-01T04:23:19.847Z,24.25
2023-02-01T04:25:48.484Z,24.35
2023-02-01T04:28:16.799Z,24.46
2023-02-01T04:30:45.196Z,24.56
2023-02-01T04:33:15.865Z,24.67
2023-02-01T04:35:44.254Z,24.75
2023-02-01T04:38:13.264Z,24.83
2023-02-01T04:40:41.592Z,24.91
2023-02-01T04:43:10.094Z,25.04
2023-02-01T04:45:38.416Z,25.13
2023-02-01T04:48:07.102Z,25.21
2023-02-01T04:50:35.464Z,25.31
2023-02-01T04:53:03.844Z,25.40
2023-02-01T04:55:32.681Z,25.47
2023-02-01T04:58:01.028Z,25.53
2023-02-01T05:00:29.420Z,25.61
2023-02-01T05:02:58.045Z,25.67
2023-02-01T05:05:26.659Z,25.73
2023-02-01T05:07:55.476Z,25.79
2023-02-01T05:10:24.278Z,25.87
2023-02-01T05:13:11.645Z,25.94
2023-02-01T05:15:40.018Z,26.03
2023-02-01T05:18:08.438Z,26.14
2023-02-01T05:20:37.360Z,26.26
2023-02-01T05:23:05.780Z,26.35
2023-02-01T05:25:34.116Z,26.40
2023-02-01T05:28:02.489Z,26.48
2023-02-01T05:30:31.519Z,26.53
2023-02-01T05:32:59.929Z,26.59
2023-02-01T05:35:28.412Z,26.63
2023-02-01T05:37:56.769Z,26.69
2023-02-01T05:40:25.332Z,26.76
2023-02-01T05:42:53.933Z,26.85
2023-02-01T05:45:22.238Z,26.91
2023-02-01T05:47:50.572Z,26.96
2023-02-01T05:50:19.338Z,27.01
2023-02-01T05:52:47.679Z,27.06
2023-02-01T05:55:16.102Z,27.10
2023-02-01T05:57:44.449Z,27.16
2023-02-01T06:00:13.385Z,27.21
2023-02-01T06:02:42.642Z,27.24
2023-02-01T06:05:11.188Z,27.27
2023-02-01T06:07:39.525Z,27.30
2023-02-01T06:10:08.787Z,27.36
2023-02-01T06:12:37.279Z,27.44
2023-02-01T06:15:06.204Z,27.51
2023-02-01T06:17:34.548Z,27.58
2023-02-01T06:20:02.841Z,27.64
2023-02-01T06:22:31.196Z,27.68
2023-02-01T06:25:00.799Z,27.75
2023-02-01T06:27:29.144Z,27.79
2023-02-01T06:29:57.995Z,27.82
2023-02-01T06:32:26.624Z,27.84
2023-02-01T06:34:54.991Z,27.89
2023-02-01T06:37:23.477Z,27.91
2023-02-01T06:39:51.797Z,27.91
2023-02-01T06:42:20.105Z,27.94
2023-02-01T06:44:48.550Z,27.99
2023-02-01T06:47:16.844Z,28.05
2023-02-01T06:49:45.303Z,28.08
2023-02-01T06:52:13.615Z,28.11
2023-02-01T06:54:42.065Z,28.11
2023-02-01T06:57:13.797Z,28.11
2023-02-01T06:59:42.082Z,28.10
2023-02-01T07:02:17.882Z,28.11
2023-02-01T07:04:46.266Z,28.12
2023-02-01T07:07:15.049Z,28.13
2023-02-01T07:09:43.482Z,28.17
2023-02-01T07:12:11.770Z,28.18
2023-02-01T07:14:40.066Z,28.22
2023-02-01T07:17:08.383Z,28.26
2023-02-01T07:19:37.251Z,28.29
2023-02-01T07:22:05.561Z,28.30
2023-02-01T07:24:33.907Z,28.36
2023-02-01T07:27:02.241Z,28.39
2023-02-01T07:29:30.544Z,28.42
2023-02-01T07:31:58.888Z,28.47
2023-02-01T07:34:27.293Z,28.50
2023-02-01T07:36:55.566Z,28.50
2023-02-01T07:39:23.925Z,28.46
2023-02-01T07:41:52.203Z,28.43
2023-02-01T07:44:24.599Z,28.42
2023-02-01T07:46:53.209Z,28.37
2023-02-01T07:49:21.513Z,28.36
2023-02-01T07:51:49.974Z,28.33
2023-02-01T07:54:18.387Z,28.28
2023-02-01T07:56:46.795Z,28.20
2023-02-01T07:59:15.402Z,28.11
2023-02-01T08:01:43.968Z,28.06
2023-02-01T08:04:16.077Z,28.00
2023-02-01T08:06:44.439Z,27.94
2023-02-01T08:09:13.389Z,27.91
2023-02-01T08:11:41.734Z,27.89
2023-02-01T08:14:10.060Z,27.89
2023-02-01T08:16:39.654Z,27.88
2023-02-01T08:19:08.023Z,27.88
2023-02-01T08:21:39.157Z,27.89
2023-02-01T08:24:08.686Z,27.89
2023-02-01T08:26:37.113Z,27.91
2023-02-01T08:29:08.582Z,27.93
2023-02-01T08:31:36.935Z,27.98
2023-02-01T08:34:10.237Z,28.00
2023-02-01T08:36:40.118Z,28.02
2023-02-01T08:39:10.925Z,28.01
2023-02-01T08:41:39.777Z,28.00
2023-02-01T08:44:08.187Z,27.97
2023-02-01T08:46:36.603Z,27.94
2023-02-01T08:49:04.969Z,27.90
2023-02-01T08:51:33.284Z,27.89
2023-02-01T08:54:02.864Z,27.88
2023-02-01T08:56:31.202Z,27.90
2023-02-01T08:58:59.523Z,27.95
2023-02-01T09:01:27.923Z,27.98
2023-02-01T09:03:56.421Z,28.00
2023-02-01T09:06:25.006Z,28.01
2023-02-01T09:08:53.306Z,28.01
2023-02-01T09:11:21.621Z,28.00
2023-02-01T09:13:50.854Z,27.99
2023-02-01T09:16:20.378Z,27.98
2023-02-01T09:18:56.442Z,27.95
2023-02-01T09:21:31.067Z,27.93
2023-02-01T09:23:59.715Z,27.92
2023-02-01T09:26:32.916Z,27.90
2023-02-01T09:29:02.659Z,27.91
2023-02-01T09:31:31.449Z,27.91
2023-02-01T09:33:59.972Z,27.90
2023-02-01T09:36:30.180Z,27.87
2023-02-01T09:38:59.996Z,27.84
2023-02-01T09:41:57.164Z,27.81
2023-02-01T09:44:29.932Z,27.75
2023-02-01T09:47:01.793Z,27.70
2023-02-01T09:49:34.306Z,27.65
2023-02-01T09:52:09.100Z,27.61
2023-02-01T09:54:56.000Z,27.56
2023-02-01T09:58:00.709Z,27.49
2023-02-01T10:00:35.970Z,27.43
2023-02-01T10:03:04.764Z,27.38
2023-02-01T10:05:51.637Z,27.32
2023-02-01T10:08:32.873Z,27.27
2023-02-01T10:11:29.544Z,27.20
2023-02-01T10:14:16.145Z,27.12
2023-02-01T10:16:53.611Z,27.04
2023-02-01T10:19:56.625Z,26.97
2023-02-01T10:23:13.420Z,26.88
2023-02-01T10:25:54.513Z,26.80
2023-02-01T10:28:25.972Z,26.72
2023-02-01T10:30:59.660Z,26.66
2023-02-01T10:33:54.662Z,26.59
2023-02-01T10:36:42.582Z,26.52
2023-02-01T10:39:15.561Z,26.44
2023-02-01T10:41:47.989Z,26.37
2023-02-01T10:44:25.067Z,26.28
2023-02-01T10:46:53.852Z,26.19
2023-02-01T10:49:43.213Z,26.11
2023-02-01T10:52:40.506Z,26.00
2023-02-01T10:55:30.388Z,25.92
2023-02-01T10:58:04.705Z,25.80
2023-02-01T11:01:05.634Z,25.69
2023-02-01T11:03:39.637Z,25.57
2023-02-01T11:06:32.172Z,25.48
2023-02-01T11:09:14.917Z,25.37
2023-02-01T11:11:49.277Z,25.29
2023-02-01T11:14:20.798Z,25.19
2023-02-01T11:16:56.996Z,25.10
2023-02-01T11:19:25.717Z,25.02
2023-02-01T11:21:56.106Z,24.91
2023-02-01T11:24:36.807Z,24.81
2023-02-01T11:27:10.382Z,24.73
2023-02-01T11:29:45.439Z,24.63
2023-02-01T11:32:17.641Z,24.54
2023-02-01T11:34:57.525Z,24.43
2023-02-01T11:37:39.083Z,24.31
2023-02-01T11:40:31.044Z,24.19
2023-02-01T11:43:10.663Z,24.06
2023-02-01T11:45:41.575Z,23.96
2023-02-01T11:48:26.883Z,23.85
2023-02-01T11:51:32.928Z,23.71
2023-02-01T11:54:41.301Z,23.59
2023-02-01T11:57:39.687Z,23.50
2023-02-01T12:00:35.692Z,23.42
2023-02-01T12:03:32.416Z,23.34
2023-02-01T12:06:32.099Z,23.23
2023-02-01T12:09:30.623Z,23.12
2023-02-01T12:12:19.286Z,23.01
2023-02-01T12:15:39.021Z,22.92
2023-02-01T12:18:42.039Z,22.84
2023-02-01T12:21:22.059Z,22.75
2023-02-01T12:24:27.515Z,22.66
2023-02-01T12:27:48.875Z,22.56
2023-02-01T12:30:35.638Z,22.48
2023-02-01T12:33:13.007Z,22.42
2023-02-01T12:35:56.825Z,22.35
2023-02-01T12:39:02.753Z,22.26
2023-02-01T12:42:03.345Z,22.19
2023-02-01T12:44:44.643Z,22.14
2023-02-01T12:47:31.398Z,22.10
2023-02-01T12:50:09.663Z,22.04
2023-02-01T12:52:50.321Z,21.99
2023-02-01T12:55:27.531Z,21.94
2023-02-01T12:58:09.320Z,21.87
2023-02-01T13:00:53.589Z,21.82
2023-02-01T13:03:38.701Z,21.76
2023-02-01T13:06:35.210Z,21.68
2023-02-01T13:09:29.418Z,21.59
2023-02-01T13:12:03.314Z,21.52
2023-02-01T13:14:40.380Z,21.45
2023-02-01T13:17:16.349Z,21.39
2023-02-01T13:20:12.499Z,21.33
2023-02-01T13:22:47.960Z,21.27
2023-02-01T13:25:49.077Z,21.20
2023-02-01T13:28:46.902Z,21.15
2023-02-01T13:31:50.871Z,21.12
2023-02-01T13:34:51.469Z,21.08
2023-02-01T13:37:58.414Z,21.04
2023-02-01T13:41:09.047Z,20.97
2023-02-01T13:43:40.849Z,20.94
2023-02-01T13:46:16.560Z,20.90
2023-02-01T13:48:56.186Z,20.87
2023-02-01T13:51:46.050Z,20.85
2023-02-01T13:54:33.736Z,20.82
2023-02-01T13:57:04.909Z,20.80
2023-02-01T13:59:42.576Z,20.77
2023-02-01T14:02:44.722Z,20.75
2023-02-01T14:05:36.305Z,20.70
2023-02-01T14:08:11.474Z,20.66
2023-02-01T14:11:02.419Z,20.63
2023-02-01T14:13:40.844Z,20.60
2023-02-01T14:16:10.118Z,20.59
2023-02-01T14:18:39.063Z,20.56
2023-02-01T14:21:39.262Z,20.53
2023-02-01T14:24:26.787Z,20.49
2023-02-01T14:26:59.968Z,20.45
2023-02-01T14:29:34.317Z,20.41
2023-02-01T14:32:05.918Z,20.35
2023-02-01T14:34:39.668Z,20.32
2023-02-01T14:37:13.352Z,20.31
2023-02-01T14:40:14.917Z,20.27
2023-02-01T14:42:54.309Z,20.23
2023-02-01T14:45:26.130Z,20.20
2023-02-01T14:47:55.560Z,20.18
2023-02-01T14:50:38.553Z,20.17
2023-02-01T14:53:15.620Z,20.14
2023-02-01T14:55:54.307Z,20.12
2023-02-01T14:58:44.102Z,20.10
2023-02-01T15:01:36.699Z,20.05
2023-02-01T15:04:23.766Z,20.01
2023-02-01T15:06:59.322Z,19.99
2023-02-01T15:09:38.616Z,19.95
2023-02-01T15:12:16.726Z,19.94
2023-02-01T15:14:53.044Z,19.90
2023-02-01T15:17:37.202Z,19.88
2023-02-01T15:20:20.087Z,19.85
2023-02-01T15:23:20.393Z,19.83
2023-02-01T15:25:49.550Z,19.80
2023-02-01T15:28:18.941Z,19.77
2023-02-01T15:31:03.651Z,19.74
2023-02-01T15:33:33.840Z,19.73
2023-02-01T15:36:20.402Z,19.71
2023-02-01T15:38:48.728Z,19.67
2023-02-01T15:41:23.521Z,19.66
2023-02-01T15:43:57.854Z,19.63
2023-02-01T15:46:26.160Z,19.59
2023-02-01T15:48:56.563Z,19.57
2023-02-01T15:51:29.683Z,19.54
2023-02-01T15:54:02.290Z,19.54
2023-02-01T15:56:41.610Z,19.52
2023-02-01T15:59:20.086Z,19.51
2023-02-01T16:01:49.449Z,19.48
2023-02-01T16:04:23.126Z,19.45
2023-02-01T16:07:05.307Z,19.42
2023-02-01T16:09:40.780Z,19.38
2023-02-01T16:12:33.012Z,19.35
2023-02-01T16:15:01.354Z,19.34
2023-02-01T16:17:29.688Z,19.32
2023-02-01T16:19:59.144Z,19.30
2023-02-01T16:22:27.754Z,19.29
2023-02-01T16:24:56.043Z,19.26
2023-02-01T16:27:24.315Z,19.24
2023-02-01T16:29:52.882Z,19.23
2023-02-01T16:32:23.680Z,19.21
2023-02-01T16:34:51.985Z,19.20
2023-02-01T16:37:26.132Z,19.19
2023-02-01T16:39:54.409Z,19.18
2023-02-01T16:42:22.703Z,19.17
2023-02-01T16:44:51.103Z,19.16
2023-02-01T16:47:25.448Z,19.14
2023-02-01T16:49:54.134Z,19.14
2023-02-01T16:52:25.711Z,19.12
2023-02-01T16:54:54.813Z,19.12
2023-02-01T16:57:25.307Z,19.11
2023-02-01T16:59:53.605Z,19.12
2023-02-01T17:02:23.716Z,19.12
2023-02-01T17:04:52.143Z,19.12
2023-02-01T17:07:21.326Z,19.08
2023-02-01T17:09:49.692Z,19.08
2023-02-01T17:12:30.342Z,19.06
2023-02-01T17:14:59.797Z,19.05
2023-02-01T17:17:39.214Z,19.02
2023-02-01T17:20:08.650Z,18.99
2023-02-01T17:22:36.946Z,18.99
2023-02-01T17:25:07.913Z,18.97
2023-02-01T17:27:38.058Z,18.94
2023-02-01T17:30:07.091Z,18.93
2023-02-01T17:32:35.516Z,18.89
2023-02-01T17:35:05.926Z,18.88
2023-02-01T17:37:37.206Z,18.85
2023-02-01T17:40:06.120Z,18.83
2023-02-01T17:42:34.435Z,18.81
2023-02-01T17:45:24.631Z,18.78
2023-02-01T17:47:53.249Z,18.75
2023-02-01T17:50:21.654Z,18.72
2023-02-01T17:52:50.080Z,18.68
2023-02-01T17:55:24.200Z,18.66
2023-02-01T17:57:52.951Z,18.64
2023-02-01T18:00:22.655Z,18.63
2023-02-01T18:02:51.010Z,18.61
2023-02-01T18:05:30.175Z,18.60
2023-02-01T18:07:58.473Z,18.58
2023-02-01T18:10:26.795Z,18.56
2023-02-01T18:12:56.057Z,18.57
2023-02-01T18:15:28.832Z,18.56
2023-02-01T18:17:57.156Z,18.53
2023-02-01T18:20:27.300Z,18.53
2023-02-01T18:22:55.606Z,18.53
2023-02-01T18:25:25.940Z,18.53
2023-02-01T18:27:56.445Z,18.52
2023-02-01T18:30:32.907Z,18.51
2023-02-01T18:33:01.360Z,18.50
2023-02-01T18:35:31.884Z,18.48
2023-02-01T18:38:00.557Z,18.47
2023-02-01T18:40:35.669Z,18.45
2023-02-01T18:43:04.106Z,18.44
2023-02-01T18:45:39.673Z,18.42
2023-02-01T18:48:09.817Z,18.42
2023-02-01T18:50:43.028Z,18.39
2023-02-01T18:53:22.678Z,18.39
2023-02-01T18:55:51.489Z,18.37
2023-02-01T18:58:19.964Z,18.38
2023-02-01T19:00:48.731Z,18.35
2023-02-01T19:03:17.703Z,18.33
2023-02-01T19:05:47.685Z,18.30
2023-02-01T19:08:16.438Z,18.27
2023-02-01T19:10:44.906Z,18.24
2023-02-01T19:13:14.427Z,18.20
2023-02-01T19:15:44.702Z,18.17
2023-02-01T19:18:13.632Z,18.15
2023-02-01T19:20:45.907Z,18.14
2023-02-01T19:23:15.357Z,18.09
2023-02-01T19:25:48.632Z,18.09
2023-02-01T19:28:17.678Z,18.08
2023-02-01T19:30:46.138Z,18.07
2023-02-01T19:33:14.832Z,18.05
2023-02-01T19:35:43.164Z,18.04
2023-02-01T19:38:12.397Z,18.02
2023-02-01T19:40:40.737Z,18.00
2023-02-01T19:43:09.036Z,17.97
2023-02-01T19:45:37.539Z,17.97
2023-02-01T19:48:08.382Z,17.96
2023-02-01T19:50:36.748Z,17.93
2023-02-01T19:53:05.078Z,17.93
2023-02-01T19:55:33.639Z,17.91
2023-02-01T19:58:03.316Z,17.92
2023-02-01T20:00:30.774Z,17.90
2023-02-01T20:02:59.459Z,17.88
2023-02-01T20:05:27.853Z,17.88
2023-02-01T20:07:56.260Z,17.86
2023-02-01T20:10:24.767Z,17.86
2023-02-01T20:12:53.138Z,17.84
2023-02-01T20:15:25.407Z,17.82
2023-02-01T20:17:54.023Z,17.82
2023-02-01T20:20:22.458Z,17.79
2023-02-01T20:22:52.375Z,17.79
2023-02-01T20:25:20.785Z,17.78
2023-02-01T20:27:53.622Z,17.77
2023-02-01T20:30:22.485Z,17.77
2023-02-01T20:32:51.616Z,17.78
2023-02-01T20:35:20.803Z,17.79
2023-02-01T20:37:49.931Z,17.81
2023-02-01T20:40:18.714Z,17.82
2023-02-01T20:42:47.163Z,17.83
2023-02-01T20:45:15.533Z,17.82
2023-02-01T20:47:44.202Z,17.81
2023-02-01T20:50:13.166Z,17.78
2023-02-01T20:52:41.537Z,17.77
2023-02-01T20:55:10.230Z,17.75
2023-02-01T20:57:38.605Z,17.72
2023-02-01T21:00:13.577Z,17.71
2023-02-01T21:02:41.952Z,17.71
2023-02-01T21:05:11.265Z,17.71
2023-02-01T21:07:39.673Z,17.74
2023-02-01T21:10:08.753Z,17.74
2023-02-01T21:12:37.331Z,17.73
2023-02-01T21:15:07.408Z,17.76
2023-02-01T21:17:35.759Z,17.77
2023-02-01T21:20:04.171Z,17.80
2023-02-01T21:22:32.526Z,17.81
2023-02-01T21:25:02.066Z,17.84
2023-02-01T21:27:30.574Z,17.84
2023-02-01T21:29:58.917Z,17.87
2023-02-01T21:32:27.295Z,17.86
2023-02-01T21:34:55.598Z,17.85
2023-02-01T21:37:26.570Z,17.81
2023-02-01T21:39:54.907Z,17.77
2023-02-01T21:42:25.428Z,17.76
2023-02-01T21:44:54.383Z,17.75
2023-02-01T21:47:26.313Z,17.73
2023-02-01T21:49:55.827Z,17.71
2023-02-01T21:52:24.711Z,17.71
2023-02-01T21:55:00.159Z,17.70
2023-02-01T21:57:30.344Z,17.70
2023-02-01T21:59:59.819Z,17.67
2023-02-01T22:02:28.986Z,17.68
2023-02-01T22:04:58.672Z,17.67
2023-02-01T22:07:27.205Z,17.67
2023-02-01T22:09:55.552Z,17.66
2023-02-01T22:12:24.160Z,17.65
2023-02-01T22:14:52.458Z,17.63
2023-02-01T22:17:20.763Z,17.60
2023-02-01T22:19:49.066Z,17.59
2023-02-01T22:22:17.722Z,17.57
2023-02-01T22:24:46.079Z,17.57
2023-02-01T22:27:14.833Z,17.54
2023-02-01T22:29:44.510Z,17.54
2023-02-01T22:32:14.773Z,17.56
2023-02-01T22:34:43.333Z,17.55
2023-02-01T22:37:12.276Z,17.54
2023-02-01T22:39:41.056Z,17.52
2023-02-01T22:42:09.577Z,17.49
2023-02-01T22:44:38.534Z,17.46
2023-02-01T22:47:07.350Z,17.44
2023-02-01T22:49:35.630Z,17.40
2023-02-01T22:52:03.920Z,17.36
2023-02-01T22:54:32.247Z,17.33
2023-02-01T22:57:01.199Z,17.29
2023-02-01T22:59:29.574Z,17.25
2023-02-01T23:01:57.864Z,17.24
2023-02-01T23:04:26.239Z,17.23
2023-02-01T23:06:54.656Z,17.21
2023-02-01T23:09:29.077Z,17.20
2023-02-01T23:11:57.403Z,17.17
2023-02-01T23:14:25.843Z,17.16
2023-02-01T23:16:54.204Z,17.13
2023-02-01T23:19:22.765Z,17.12
2023-02-01T23:21:51.259Z,17.10
2023-02-01T23:24:19.763Z,17.09
2023-02-01T23:26:48.207Z,17.05
2023-02-01T23:29:19.114Z,17.04
2023-02-01T23:31:47.568Z,17.03
2023-02-01T23:34:16.131Z,17.01
2023-02-01T23:36:44.455Z,16.99
2023-02-01T23:39:12.851Z,16.99
2023-02-01T23:41:41.134Z,16.97
2023-02-01T23:44:09.565Z,16.97
2023-02-01T23:46:48.047Z,16.97
2023-02-01T23:49:18.656Z,16.98
2023-02-01T23:51:51.052Z,16.98
2023-02-01T23:54:19.913Z,16.97
2023-02-01T23:56:48.374Z,16.96
2023-02-01T23:59:22.080Z,16.95
